Flugplatz Kührstedt-Bederkesa

Für EDXZ sind keine METAR/TAF Berichte vorhanden.
Es werden die Flugwettermeldungen vom Flugplatz Nordholz Airport in 23 km Entfernung angezeigt.

Bericht für ETMN

vom 17.09. um 13:20 UTC

Wind 25 kt aus 320° in Böen 39 kt

Sichtweite 10 km oder mehr

Code: VCSH

gering bewölkt in 2500 ft

Temperatur 14.0°C

Taupunkt 5.0°C

Luftfeuchtigkeit 55%

Luftdruck 1015 hPa

ETMN 171320Z 32025G39KT 9999 VCSH FEW025CB 14/05 Q1015 BLU+BLU+ TEMPO WHT

Prognose für ETMN

vom 17.09. um 00:00 UTC

Zwischen 00:00 UTC und 00:00 UTC

Wind 22 kt aus 310° in Böen 35 kt

Sichtweite 10 km oder mehr

keine signifikanten Wettererscheinungen

aufgelockert bewölkt in 1500 ft

aufgelockert bewölkt in 5000 ft


Zwischen 00:00 UTC und 00:00 UTC zeitweise

Wind 25 kt aus 320° in Böen 40 kt

Sichtweite 5000 m

Regenschauer

aufgelockert bewölkt in 1200 ft

aufgebrochene Bewölkung in 1800 ft

TAF ETMN 171320Z 1714/1723 31022G35KT 9999 NSW SCT015 SCT050 TEMPO 1714/1721 32025G40KT 5000 SHRA SCT012 BKN018CB
Impressum